Time,TemperatureF,DewpointF,PressureIn,WindDirection,WindDirectionDegrees,WindSpeedMPH,WindSpeedGustMPH,Humidity,HourlyPrecipIn,Conditions,Clouds,dailyrainin,SolarRadiationWatts/m^2,SoftwareType,DateUTC
2013-02-22 00:01:00,46.1,37.6,29.95,North,5,4.0,4.0,72,0.00,,,0.00,0,Wunderground v.1.15,2013-02-22 06:01:00,
2013-02-22 00:06:00,45.9,37.4,29.94,North,355,4.0,5.0,72,0.00,,,0.00,0,Wunderground v.1.15,2013-02-22 06:06:00,
2013-02-22 00:11:00,45.6,36.7,29.95,NNE,12,4.0,6.0,71,0.00,,,0.00,0,Wunderground v.1.15,2013-02-22 06:11:00,
2013-02-22 00:17:00,45.4,36.5,29.95,NNW,348,3.0,6.0,71,0.00,,,0.00,0,Wunderground v.1.15,2013-02-22 06:17:00,
2013-02-22 00:22:00,45.2,36.4,29.95,North,355,3.0,8.0,71,0.00,,,0.00,0,Wunderground v.1.15,2013-02-22 06:22:00,
2013-02-22 00:27:00,45.1,36.3,29.95,NNW,348,3.0,8.0,71,0.00,,,0.00,0,Wunderground v.1.15,2013-02-22 06:27:00,
2013-02-22 00:33:00,44.9,36.4,29.95,NNW,348,2.0,3.0,72,0.00,,,0.00,0,Wunderground v.1.15,2013-02-22 06:33:00,
2013-02-22 00:38:00,44.8,36.3,29.95,North,351,1.0,3.0,72,0.00,,,0.00,0,Wunderground v.1.15,2013-02-22 06:38:00,
2013-02-22 00:43:00,44.7,36.2,29.95,North,5,2.0,5.0,72,0.00,,,0.00,0,Wunderground v.1.15,2013-02-22 06:43:00,
2013-02-22 00:49:00,44.6,37.5,29.96,North,355,2.0,5.0,76,0.00,,,0.00,0,Wunderground v.1.15,2013-02-22 06:49:00,
2013-02-22 00:54:00,44.5,36.4,29.96,North,355,2.0,3.0,73,0.00,,,0.00,0,Wunderground v.1.15,2013-02-22 06:54:00,
2013-02-22 00:59:00,44.3,36.5,29.96,North,351,2.0,9.0,74,0.00,,,0.00,0,Wunderground v.1.15,2013-02-22 06:59:00,
2013-02-22 01:04:00,44.1,36.3,29.96,North,355,3.0,6.0,74,0.00,,,0.00,0,Wunderground v.1.15,2013-02-22 07:04:00,
2013-02-22 01:10:00,43.9,36.5,29.96,North,360,3.0,4.0,75,0.00,,,0.00,0,Wunderground v.1.15,2013-02-22 07:10:00,
2013-02-22 01:15:00,43.6,36.5,29.96,North,5,2.0,6.0,76,0.00,,,0.00,0,Wunderground v.1.15,2013-02-22 07:15:00,
2013-02-22 01:21:00,43.4,36.3,29.97,NNE,13,3.0,6.0,76,0.00,,,0.00,0,Wunderground v.1.15,2013-02-22 07:21:00,
2013-02-22 01:26:00,43.3,36.2,29.97,North,355,3.0,6.0,76,0.00,,,0.00,0,Wunderground v.1.15,2013-02-22 07:26:00,
2013-02-22 01:31:00,43.2,36.1,29.97,NNW,338,3.0,3.0,76,0.00,,,0.00,0,Wunderground v.1.15,2013-02-22 07:31:00,
2013-02-22 01:36:00,43.0,36.0,29.98,North,360,2.0,6.0,76,0.00,,,0.00,0,Wunderground v.1.15,2013-02-22 07:36:00,
2013-02-22 01:41:00,42.8,35.8,29.99,North,355,2.0,2.0,76,0.00,,,0.00,0,Wunderground v.1.15,2013-02-22 07:41:00,
2013-02-22 01:47:00,42.5,35.5,29.99,NW,317,1.0,5.0,76,0.00,,,0.00,0,Wunderground v.1.15,2013-02-22 07:47:00,
2013-02-22 01:52:00,42.3,35.3,29.99,North,350,3.0,3.0,76,0.00,,,0.00,0,Wunderground v.1.15,2013-02-22 07:52:00,
2013-02-22 01:57:00,42.1,35.1,30.00,NW,321,3.0,7.0,76,0.00,,,0.00,0,Wunderground v.1.15,2013-02-22 07:57:00,
2013-02-22 02:02:00,42.0,35.3,30.00,WNW,302,2.0,3.0,77,0.00,,,0.00,0,Wunderground v.1.15,2013-02-22 08:02:00,
2013-02-22 02:08:00,41.8,35.1,29.99,NNW,345,2.0,5.0,77,0.00,,,0.00,0,Wunderground v.1.15,2013-02-22 08:08:00,
2013-02-22 02:13:00,41.6,34.9,29.99,WNW,297,2.0,4.0,77,0.00,,,0.00,0,Wunderground v.1.15,2013-02-22 08:13:00,
2013-02-22 02:19:00,41.4,35.1,30.00,NNW,331,3.0,5.0,78,0.00,,,0.00,0,Wunderground v.1.15,2013-02-22 08:19:00,
2013-02-22 02:24:00,40.9,34.2,29.99,North,355,4.0,4.0,77,0.00,,,0.00,0,Wunderground v.1.15,2013-02-22 08:24:00,
2013-02-22 02:29:00,40.4,33.8,29.99,NW,304,4.0,4.0,77,0.00,,,0.00,0,Wunderground v.1.15,2013-02-22 08:29:00,
2013-02-22 02:35:00,39.8,33.2,30.00,NW,313,3.0,5.0,77,0.00,,,0.00,0,Wunderground v.1.15,2013-02-22 08:35:00,
2013-02-22 02:40:00,39.1,32.5,30.00,NNW,327,4.0,4.0,77,0.00,,,0.00,0,Wunderground v.1.15,2013-02-22 08:40:00,
2013-02-22 02:46:00,38.5,31.9,30.01,NNW,338,4.0,6.0,77,0.00,,,0.00,0,Wunderground v.1.15,2013-02-22 08:46:00,
2013-02-22 02:52:00,38.1,31.5,30.01,NW,313,3.0,5.0,77,0.00,,,0.00,0,Wunderground v.1.15,2013-02-22 08:52:00,
2013-02-22 02:57:00,37.8,31.2,30.01,NW,312,2.0,8.0,77,0.00,,,0.00,0,Wunderground v.1.15,2013-02-22 08:57:00,
2013-02-22 03:03:00,37.5,30.9,30.01,NW,321,3.0,3.0,77,0.00,,,0.00,0,Wunderground v.1.15,2013-02-22 09:03:00,
2013-02-22 03:08:00,37.2,30.7,30.00,NNW,336,4.0,7.0,77,0.00,,,0.00,0,Wunderground v.1.15,2013-02-22 09:08:00,
2013-02-22 03:13:00,36.9,30.4,30.00,NNW,344,4.0,6.0,77,0.00,,,0.00,0,Wunderground v.1.15,2013-02-22 09:13:00,
2013-02-22 03:19:00,36.7,30.2,30.00,North,351,4.0,6.0,77,0.00,,,0.00,0,Wunderground v.1.15,2013-02-22 09:19:00,
2013-02-22 03:24:00,36.6,30.1,30.01,NNW,331,4.0,11.0,77,0.00,,,0.00,0,Wunderground v.1.15,2013-02-22 09:24:00,
2013-02-22 03:29:00,36.4,29.9,30.00,NW,313,5.0,11.0,77,0.00,,,0.00,0,Wunderground v.1.15,2013-02-22 09:29:00,
2013-02-22 03:35:00,36.2,29.7,30.00,NW,319,4.0,5.0,77,0.00,,,0.00,0,Wunderground v.1.15,2013-02-22 09:35:00,
2013-02-22 03:41:00,36.2,29.7,30.00,NNW,346,4.0,8.0,77,0.00,,,0.00,0,Wunderground v.1.15,2013-02-22 09:41:00,
2013-02-22 03:46:00,36.0,29.5,30.01,NW,319,4.0,8.0,77,0.00,,,0.00,0,Wunderground v.1.15,2013-02-22 09:46:00,
2013-02-22 03:52:00,36.0,29.5,30.00,West,271,3.0,6.0,77,0.00,,,0.00,0,Wunderground v.1.15,2013-02-22 09:52:00,
2013-02-22 03:57:00,35.9,29.4,30.01,NW,322,3.0,8.0,77,0.00,,,0.00,0,Wunderground v.1.15,2013-02-22 09:57:00,
2013-02-22 04:02:00,35.7,28.9,30.02,NNW,331,4.0,10.0,76,0.00,,,0.00,0,Wunderground v.1.15,2013-02-22 10:02:00,
2013-02-22 04:08:00,35.6,28.8,30.02,NNW,348,4.0,10.0,76,0.00,,,0.00,0,Wunderground v.1.15,2013-02-22 10:08:00,
2013-02-22 04:13:00,35.4,28.6,30.02,North,350,3.0,7.0,76,0.00,,,0.00,0,Wunderground v.1.15,2013-02-22 10:13:00,
2013-02-22 04:19:00,35.3,28.8,30.03,North,355,3.0,7.0,77,0.00,,,0.00,0,Wunderground v.1.15,2013-02-22 10:19:00,
2013-02-22 04:25:00,35.2,28.7,30.05,NNW,345,3.0,5.0,77,0.00,,,0.00,0,Wunderground v.1.15,2013-02-22 10:25:00,
2013-02-22 04:30:00,35.1,28.6,30.05,North,355,3.0,3.0,77,0.00,,,0.00,0,Wunderground v.1.15,2013-02-22 10:30:00,
2013-02-22 04:36:00,35.0,28.5,30.06,NW,314,2.0,3.0,77,0.00,,,0.00,0,Wunderground v.1.15,2013-02-22 10:36:00,
2013-02-22 04:41:00,34.9,28.4,30.07,NW,314,1.0,1.0,77,0.00,,,0.00,0,Wunderground v.1.15,2013-02-22 10:41:00,
2013-02-22 04:47:00,34.8,28.3,30.07,NW,307,1.0,3.0,77,0.00,,,0.00,0,Wunderground v.1.15,2013-02-22 10:47:00,
2013-02-22 04:52:00,34.7,28.2,30.08,WNW,291,1.0,3.0,77,0.00,,,0.00,0,Wunderground v.1.15,2013-02-22 10:52:00,
2013-02-22 04:57:00,34.6,28.1,30.08,WNW,290,1.0,8.0,77,0.00,,,0.00,0,Wunderground v.1.15,2013-02-22 10:57:00,
2013-02-22 05:03:00,34.5,28.0,30.08,WNW,282,1.0,2.0,77,0.00,,,0.00,0,Wunderground v.1.15,2013-02-22 11:03:00,
2013-02-22 05:08:00,34.4,27.9,30.09,WNW,303,1.0,5.0,77,0.00,,,0.00,0,Wunderground v.1.15,2013-02-22 11:08:00,
2013-02-22 05:13:00,34.3,28.2,30.10,West,265,1.0,4.0,78,0.00,,,0.00,0,Wunderground v.1.15,2013-02-22 11:13:00,
2013-02-22 05:18:00,34.1,27.6,30.10,WNW,298,1.0,4.0,77,0.00,,,0.00,0,Wunderground v.1.15,2013-02-22 11:18:00,
2013-02-22 05:24:00,34.0,27.5,30.11,WSW,257,1.0,5.0,77,0.00,,,0.00,0,Wunderground v.1.15,2013-02-22 11:24:00,
2013-02-22 05:29:00,33.9,27.8,30.11,West,266,1.0,5.0,78,0.00,,,0.00,0,Wunderground v.1.15,2013-02-22 11:29:00,
2013-02-22 05:35:00,33.8,27.4,30.11,WNW,297,2.0,5.0,77,0.00,,,0.00,0,Wunderground v.1.15,2013-02-22 11:35:00,
2013-02-22 05:40:00,33.7,27.3,30.12,NW,312,2.0,2.0,77,0.00,,,0.00,0,Wunderground v.1.15,2013-02-22 11:40:00,
2013-02-22 05:46:00,33.6,27.2,30.12,WNW,294,2.0,4.0,77,0.00,,,0.00,0,Wunderground v.1.15,2013-02-22 11:46:00,
2013-02-22 05:51:00,33.5,27.1,30.11,WNW,294,1.0,1.0,77,0.00,,,0.00,0,Wunderground v.1.15,2013-02-22 11:51:00,
2013-02-22 05:56:00,33.4,27.0,30.11,WNW,296,1.0,4.0,77,0.00,,,0.00,0,Wunderground v.1.15,2013-02-22 11:56:00,
2013-02-22 06:02:00,33.3,26.5,30.12,NNW,338,1.0,3.0,76,0.00,,,0.00,0,Wunderground v.1.15,2013-02-22 12:02:00,
2013-02-22 06:07:00,33.2,26.5,30.11,West,260,2.0,3.0,76,0.00,,,0.00,0,Wunderground v.1.15,2013-02-22 12:07:00,
2013-02-22 06:13:00,33.0,26.3,30.12,NW,325,2.0,3.0,76,0.00,,,0.00,0,Wunderground v.1.15,2013-02-22 12:13:00,
2013-02-22 06:18:00,32.9,25.8,30.11,North,360,2.0,4.0,75,0.00,,,0.00,0,Wunderground v.1.15,2013-02-22 12:18:00,
2013-02-22 06:23:00,32.8,25.7,30.12,NNW,342,3.0,4.0,75,0.00,,,0.00,0,Wunderground v.1.15,2013-02-22 12:23:00,
2013-02-22 06:29:00,32.7,25.3,30.11,NNW,331,3.0,4.0,74,0.00,,,0.00,0,Wunderground v.1.15,2013-02-22 12:29:00,
2013-02-22 06:34:00,32.7,25.3,30.11,NNW,327,3.0,4.0,74,0.00,,,0.00,0,Wunderground v.1.15,2013-02-22 12:34:00,
2013-02-22 06:39:00,32.7,25.3,30.11,NW,315,2.0,4.0,74,0.00,,,0.00,0,Wunderground v.1.15,2013-02-22 12:39:00,
2013-02-22 06:45:00,32.6,25.2,30.12,WNW,299,2.0,6.0,74,0.00,,,0.00,0,Wunderground v.1.15,2013-02-22 12:45:00,
2013-02-22 06:50:00,32.5,25.1,30.12,NNW,332,3.0,3.0,74,0.00,,,0.00,0,Wunderground v.1.15,2013-02-22 12:50:00,
2013-02-22 06:55:00,32.4,25.0,30.12,NNW,345,3.0,6.0,74,0.00,,,0.00,0,Wunderground v.1.15,2013-02-22 12:55:00,
2013-02-22 07:00:00,32.3,24.9,30.12,NNW,344,3.0,3.0,74,0.00,,,0.00,0,Wunderground v.1.15,2013-02-22 13:00:00,
2013-02-22 07:06:00,32.2,24.8,30.12,NNW,338,3.0,6.0,74,0.00,,,0.00,0,Wunderground v.1.15,2013-02-22 13:06:00,
2013-02-22 07:11:00,32.0,24.6,30.12,North,355,3.0,4.0,74,0.00,,,0.00,7,Wunderground v.1.15,2013-02-22 13:11:00,
2013-02-22 07:16:00,31.8,24.5,30.12,NNW,330,3.0,4.0,74,0.00,,,0.00,12,Wunderground v.1.15,2013-02-22 13:16:00,
2013-02-22 07:21:00,31.7,24.4,30.13,NNW,346,3.0,3.0,74,0.00,,,0.00,18,Wunderground v.1.15,2013-02-22 13:21:00,
2013-02-22 07:27:00,31.6,24.3,30.14,North,360,2.0,6.0,74,0.00,,,0.00,26,Wunderground v.1.15,2013-02-22 13:27:00,
2013-02-22 07:32:00,31.6,24.3,30.15,North,350,3.0,8.0,74,0.00,,,0.00,33,Wunderground v.1.15,2013-02-22 13:32:00,
2013-02-22 07:37:00,31.6,24.3,30.15,NW,311,2.0,8.0,74,0.00,,,0.00,35,Wunderground v.1.15,2013-02-22 13:37:00,
2013-02-22 07:43:00,31.6,24.3,30.15,NNW,348,2.0,3.0,74,0.00,,,0.00,39,Wunderground v.1.15,2013-02-22 13:43:00,
2013-02-22 07:48:00,31.7,24.0,30.15,NNW,348,1.0,3.0,73,0.00,,,0.00,46,Wunderground v.1.15,2013-02-22 13:48:00,
2013-02-22 07:54:00,31.8,24.5,30.16,NNW,348,1.0,3.0,74,0.00,,,0.00,62,Wunderground v.1.15,2013-02-22 13:54:00,
2013-02-22 07:59:00,32.0,24.6,30.17,NNW,348,0.0,12.0,74,0.00,,,0.00,105,Wunderground v.1.15,2013-02-22 13:59:00,
2013-02-22 08:04:00,32.1,24.7,30.17,NNW,348,0.0,2.0,74,0.00,,,0.00,98,Wunderground v.1.15,2013-02-22 14:04:00,
2013-02-22 08:09:00,32.3,24.9,30.16,NNW,348,1.0,2.0,74,0.00,,,0.00,116,Wunderground v.1.15,2013-02-22 14:09:00,
2013-02-22 08:15:00,32.5,24.8,30.17,North,355,1.0,2.0,73,0.00,,,0.00,114,Wunderground v.1.15,2013-02-22 14:15:00,
2013-02-22 08:20:00,32.7,25.0,30.17,North,355,2.0,2.0,73,0.00,,,0.00,128,Wunderground v.1.15,2013-02-22 14:20:00,
2013-02-22 08:26:00,32.9,25.2,30.18,North,355,1.0,3.0,73,0.00,,,0.00,142,Wunderground v.1.15,2013-02-22 14:26:00,
2013-02-22 08:31:00,33.2,25.5,30.18,North,355,1.0,1.0,73,0.00,,,0.00,181,Wunderground v.1.15,2013-02-22 14:31:00,
2013-02-22 08:36:00,33.5,25.1,30.18,North,5,1.0,6.0,71,0.00,,,0.00,172,Wunderground v.1.15,2013-02-22 14:36:00,
2013-02-22 08:42:00,33.6,24.5,30.18,North,9,3.0,7.0,69,0.00,,,0.00,186,Wunderground v.1.15,2013-02-22 14:42:00,
2013-02-22 08:47:00,34.0,24.9,30.18,North,5,3.0,7.0,69,0.00,,,0.00,250,Wunderground v.1.15,2013-02-22 14:47:00,
2013-02-22 08:53:00,34.3,24.5,30.18,NNE,12,3.0,3.0,67,0.00,,,0.00,199,Wunderground v.1.15,2013-02-22 14:53:00,
2013-02-22 08:59:00,34.5,24.3,30.18,NNE,27,3.0,7.0,66,0.00,,,0.00,204,Wunderground v.1.15,2013-02-22 14:59:00,
2013-02-22 09:04:00,34.8,24.2,30.18,NNE,22,2.0,6.0,65,0.00,,,0.00,190,Wunderground v.1.15,2013-02-22 15:04:00,
2013-02-22 09:10:00,35.3,24.7,30.18,North,9,1.0,5.0,65,0.00,,,0.00,218,Wunderground v.1.15,2013-02-22 15:10:00,
2013-02-22 09:15:00,35.4,24.0,30.18,North,355,2.0,6.0,63,0.00,,,0.00,267,Wunderground v.1.15,2013-02-22 15:15:00,
2013-02-22 09:20:00,36.0,24.6,30.18,NNW,346,2.0,2.0,63,0.00,,,0.00,364,Wunderground v.1.15,2013-02-22 15:20:00,
2013-02-22 09:26:00,36.6,24.8,30.18,NNW,348,2.0,3.0,62,0.00,,,0.00,309,Wunderground v.1.15,2013-02-22 15:26:00,
2013-02-22 09:31:00,36.8,24.2,30.18,NNE,14,2.0,2.0,60,0.00,,,0.00,438,Wunderground v.1.15,2013-02-22 15:31:00,
2013-02-22 09:37:00,37.5,24.5,30.18,NNE,13,2.0,6.0,59,0.00,,,0.00,258,Wunderground v.1.15,2013-02-22 15:37:00,
2013-02-22 09:42:00,37.4,24.0,30.18,NNE,22,3.0,5.0,58,0.00,,,0.00,299,Wunderground v.1.15,2013-02-22 15:42:00,
2013-02-22 09:47:00,37.3,24.3,30.18,NNE,17,2.0,5.0,59,0.00,,,0.00,306,Wunderground v.1.15,2013-02-22 15:47:00,
2013-02-22 09:52:00,37.7,24.6,30.17,NNE,18,1.0,2.0,59,0.00,,,0.00,323,Wunderground v.1.15,2013-02-22 15:52:00,
2013-02-22 09:58:00,37.7,24.2,30.18,North,355,2.0,6.0,58,0.00,,,0.00,299,Wunderground v.1.15,2013-02-22 15:58:00,
2013-02-22 10:03:00,37.4,24.0,30.17,North,11,3.0,3.0,58,0.00,,,0.00,251,Wunderground v.1.15,2013-02-22 16:03:00,
2013-02-22 10:09:00,37.4,23.5,30.17,NE,38,2.0,3.0,57,0.00,,,0.00,267,Wunderground v.1.15,2013-02-22 16:09:00,
2013-02-22 10:14:00,37.4,23.5,30.17,NE,38,2.0,4.0,57,0.00,,,0.00,269,Wunderground v.1.15,2013-02-22 16:14:00,
2013-02-22 10:19:00,37.1,22.8,30.17,NNW,344,3.0,8.0,56,0.00,,,0.00,281,Wunderground v.1.15,2013-02-22 16:19:00,
2013-02-22 10:25:00,37.2,23.4,30.18,NW,321,3.0,6.0,57,0.00,,,0.00,278,Wunderground v.1.15,2013-02-22 16:25:00,